Berriedale, United Kingdom
Current Conditions -  °F | °C
As of 1:50 AM on Sunday 26 Oct 2014 (Local Time) from EGPC Reporting Station
Clear Clear  
Wind Chill: 50°   Ceiling: Unl
Heat Index: 50°   Visibility: 6mi
Dew Point: 41°   Wind: 16mph
Humidity: 71%   Direction: 230°SW
Pressure: 29.35"   Gusts: NA
Location:  58.2°N, 3.48°W
Report Text: EGPC 260050Z AUTO 23014KT 9999 NCD 10/05 Q0994
Loading
Personal Weather Stations






























Interactive Weather Map
Tropical Storm Tracking
New forecast layout! Learn more

10-Day Weather Forecast

Advertisements
Track Severe Weather on mobile